aviador You're here:

KLUX Decoded Metar

LAURENS CTY in SC, USA
Report Time2017-05-26 12:55:00
UTC Time2017-05-26 13:08:40
Flight Rules vfr VFR
Wind270° at 06 kt
W.Decomp.*RWY 26: 5.8 kt HW 1.5 kt RCW
W.Rank270° ranks 15
Current wind is below 270° avg. (6.2)
Visibility9999 m
Phenomena:N/A
Clouds:N/A
Expected CloudBase > 2,400 ft AGL from Temp-Dew spread
CeilingNone
Temp18°C (ISA +4)
Dew Point12°C (68% RH)
AAT16.5°C
QNH1016 hPa
Density Alt1,302 ft
Elevation699 ft
Report Wrong Elevation
Raw Report
KLUX 261255Z AUTO 27006KT 10SM CLR 18/12 A3001 RMK AO2=

Extra information for KLUX:More info

Metar Taf Metar & Taf Last 4 Metars F.Rules Stats Wind Profile Meteogram Temp Stats Airport Information Weather charts Add Link Nearby VenuesMetar ALERT Operation Metar Decoded Social comments

AIRNAV info for KLUX